Time;durP1;ratioP1;P1;durP2;ratioP2;P2;SDS_P1;SDS_P2;PMS_P1;PMS_P2;Temp;Humidity;BMP_temperature;BMP_pressure;BME280_temperature;BME280_humidity;BME280_pressure;Samples;Min_cycle;Max_cycle;Signal;HPM_P1;HPM_P2
2022/04/02 00:01:15;;;;;;;;;;;;;;;-143.90;100.00;55369.34;2093835;28;19927;-61
2022/04/02 00:02:36;;;;;;;;;;;;;;;-143.90;100.00;55371.34;2093935;28;20399;-64
2022/04/02 00:03:57;;;;;;;;;;;;;;;-143.90;100.00;55373.31;2093385;28;19959;-64
2022/04/02 00:05:18;;;;;;;;;;;;;;;-143.90;100.00;55375.31;2090575;28;19920;-62
2022/04/02 00:06:38;;;;;;;;;;;;;;;-143.90;100.00;55409.06;2092275;28;19927;-63
2022/04/02 00:07:59;;;;;;;;;;;;;;;-143.90;100.00;55407.09;2093869;28;19927;-63
2022/04/02 00:09:21;;;;;;;;;;;;;;;-143.90;100.00;55405.09;2094199;28;19920;-63
2022/04/02 00:10:41;;;;;;;;;;;;;;;-143.90;100.00;55383.25;2093053;28;20287;-62
2022/04/02 00:12:02;;;;;;;;;;;;;;;-143.90;100.00;55377.28;2091947;28;19955;-62
2022/04/02 00:13:23;;;;;;;;;;;;;;;-143.90;100.00;55369.34;2084718;28;19920;-63
2022/04/02 00:14:46;;;;;;;;;;;;;;;-143.90;100.00;55341.56;2090272;28;20677;-63
2022/04/02 00:16:07;;;;;;;;;;;;;;;-143.90;100.00;55393.19;2093258;28;19920;-62
2022/04/02 00:17:28;;;;;;;;;;;;;;;-143.90;100.00;55373.31;2094162;28;19960;-62
2022/04/02 00:18:49;;;;;;;;;;;;;;;-143.90;100.00;55373.31;2092579;28;20682;-63
2022/04/02 00:20:10;;;;;;;;;;;;;;;-143.90;100.00;55395.16;2093503;28;19927;-63
2022/04/02 00:21:31;;;;;;;;;;;;;;;-143.90;100.00;55393.19;2093178;28;20031;-61
2022/04/02 00:24:31;;;;;;;;;;;;;;;-143.90;100.00;55355.47;2092796;28;19921;-64
2022/04/02 00:25:52;;;;;;;;;;;;;;;-143.90;100.00;55365.38;2093142;28;19921;-62
2022/04/02 00:27:12;;;;;;;;;;;;;;;-143.90;100.00;55381.28;2093316;28;20010;-63
2022/04/02 00:28:35;;;;;;;;;;;;;;;-143.90;100.00;55397.16;2093457;28;19927;-64
2022/04/02 00:29:55;;;;;;;;;;;;;;;-143.90;100.00;55365.38;2090260;28;19928;-63
2022/04/02 00:31:17;;;;;;;;;;;;;;;-143.90;100.00;55357.44;2090860;28;20544;-64
2022/04/02 00:32:37;;;;;;;;;;;;;;;-143.90;100.00;55369.34;2093706;28;19920;-63
2022/04/02 00:33:59;;;;;;;;;;;;;;;-143.90;100.00;55385.25;2091723;28;19931;-63
2022/04/02 00:35:20;;;;;;;;;;;;;;;-143.90;100.00;55383.25;2093191;28;19939;-64
2022/04/02 00:36:40;;;;;;;;;;;;;;;-143.90;100.00;55353.47;2093155;28;20397;-64
2022/04/02 00:38:02;;;;;;;;;;;;;;;-143.90;100.00;55369.34;2092402;28;19927;-63
2022/04/02 00:39:22;;;;;;;;;;;;;;;-143.90;100.00;55377.28;2093807;28;19924;-63
2022/04/02 00:40:43;;;;;;;;;;;;;;;-143.90;100.00;55385.25;2093110;28;19921;-62
2022/04/02 00:42:06;;;;;;;;;;;;;;;-143.90;100.00;55351.47;2092525;28;19924;-63
2022/04/02 00:43:28;;;;;;;;;;;;;;;-143.90;100.00;55413.03;2093699;28;19925;-62
2022/04/02 00:44:48;;;;;;;;;;;;;;;-143.90;100.00;55401.13;2093410;28;19920;-63
2022/04/02 00:46:10;;;;;;;;;;;;;;;-143.90;100.00;55393.19;2086818;28;19921;-62
2022/04/02 00:47:31;;;;;;;;;;;;;;;-143.90;100.00;55377.28;2090144;28;19999;-64
2022/04/02 00:48:54;;;;;;;;;;;;;;;-143.90;100.00;55393.19;2092989;28;19921;-64
2022/04/02 00:50:15;;;;;;;;;;;;;;;-143.90;100.00;55369.34;2084061;28;19924;-61
2022/04/02 00:51:41;;;;;;;;;;;;;;;-143.90;100.00;55389.22;2089537;28;20723;-63
2022/04/02 00:53:02;;;;;;;;;;;;;;;-143.90;100.00;55339.56;2084319;28;19975;-62
2022/04/02 00:54:23;;;;;;;;;;;;;;;-143.90;100.00;55369.34;2080120;28;20070;-63
2022/04/02 00:55:45;;;;;;;;;;;;;;;-143.90;100.00;55385.25;2089480;28;19921;-63
2022/04/02 00:57:06;;;;;;;;;;;;;;;-143.90;100.00;55399.13;2076391;28;19968;-63
2022/04/02 00:58:26;;;;;;;;;;;;;;;-143.90;100.00;55373.31;2080334;28;19921;-62
2022/04/02 00:59:47;;;;;;;;;;;;;;;-143.90;100.00;55391.19;2089389;28;19938;-62
2022/04/02 01:01:09;;;;;;;;;;;;;;;-143.90;100.00;55373.31;2083910;28;20434;-63
2022/04/02 01:02:32;;;;;;;;;;;;;;;-143.90;100.00;55444.81;2090242;28;19924;-63
2022/04/02 01:03:53;;;;;;;;;;;;;;;-143.90;100.00;55371.34;2093249;28;20042;-62
2022/04/02 01:05:23;;;;;;;;;;;;;;;-143.90;100.00;55405.09;2091324;28;19928;-63
2022/04/02 01:06:44;;;;;;;;;;;;;;;-143.90;100.00;55361.41;2090356;28;19930;-62
2022/04/02 01:08:10;;;;;;;;;;;;;;;-143.90;100.00;55393.19;2084628;28;20300;-63
2022/04/02 01:09:32;;;;;;;;;;;;;;;-143.90;100.00;55407.09;2089620;28;19928;-63
2022/04/02 01:10:54;;;;;;;;;;;;;;;-143.90;100.00;55383.25;2083782;28;20035;-62
2022/04/02 01:12:15;;;;;;;;;;;;;;;-143.90;100.00;55401.13;2090279;28;20276;-63
2022/04/02 01:13:37;;;;;;;;;;;;;;;-143.90;100.00;55417.00;2084458;28;20015;-63
2022/04/02 01:15:02;;;;;;;;;;;;;;;-143.90;100.00;55377.28;2081797;28;20011;-63
2022/04/02 01:16:32;;;;;;;;;;;;;;;-143.90;100.00;55365.38;2084130;28;19991;-63
2022/04/02 01:17:57;;;;;;;;;;;;;;;-143.90;100.00;55397.16;2083055;28;19935;-64
2022/04/02 01:19:26;;;;;;;;;;;;;;;-143.90;100.00;55377.28;2079298;28;19924;-63
2022/04/02 01:20:58;;;;;;;;;;;;;;;-143.90;100.00;55393.19;2082846;28;19936;-64
2022/04/02 01:22:25;;;;;;;;;;;;;;;-143.90;100.00;55373.31;2087208;28;19930;-62
2022/04/02 01:23:48;;;;;;;;;;;;;;;-143.90;100.00;55389.22;2081623;28;19928;-62
2022/04/02 01:25:11;;;;;;;;;;;;;;;-143.90;100.00;55357.44;2086807;28;19920;-63
2022/04/02 01:26:38;;;;;;;;;;;;;;;-143.90;100.00;55401.13;2082125;28;20479;-62
2022/04/02 01:28:06;;;;;;;;;;;;;;;-143.90;100.00;55405.09;2083365;28;20304;-62
2022/04/02 01:29:35;;;;;;;;;;;;;;;-143.90;100.00;55411.06;2086693;28;19921;-63
2022/04/02 01:31:04;;;;;;;;;;;;;;;-143.90;100.00;55397.16;2092429;28;19921;-59
2022/04/02 01:32:25;;;;;;;;;;;;;;;-143.90;100.00;55405.09;2092338;28;20023;-62
2022/04/02 01:33:58;;;;;;;;;;;;;;;-143.90;100.00;55391.19;2084219;28;19940;-63
2022/04/02 01:35:22;;;;;;;;;;;;;;;-143.90;100.00;55357.44;2090936;28;20002;-63
2022/04/02 01:36:55;;;;;;;;;;;;;;;-143.90;100.00;55361.41;2083205;28;20376;-61
2022/04/02 01:38:26;;;;;;;;;;;;;;;-143.90;100.00;55389.22;2091113;28;19970;-63
2022/04/02 01:39:47;;;;;;;;;;;;;;;-143.90;100.00;55397.16;2084183;28;19920;-61
2022/04/02 01:41:11;;;;;;;;;;;;;;;-143.90;100.00;55385.25;2088981;28;19974;-62
2022/04/02 01:42:33;;;;;;;;;;;;;;;-143.90;100.00;55409.06;2092628;28;20722;-64
2022/04/02 01:43:58;;;;;;;;;;;;;;;-143.90;100.00;55369.34;2083652;28;19920;-60
2022/04/02 01:45:19;;;;;;;;;;;;;;;-143.90;100.00;55385.25;2090567;28;20007;-63
2022/04/02 01:46:44;;;;;;;;;;;;;;;-143.90;100.00;55385.25;2083177;28;19992;-64
2022/04/02 01:48:05;;;;;;;;;;;;;;;-143.90;100.00;55397.16;2091190;28;20340;-62
2022/04/02 01:49:35;;;;;;;;;;;;;;;-143.90;100.00;55377.28;2083605;28;19920;-64
2022/04/02 01:50:58;;;;;;;;;;;;;;;-143.90;100.00;55383.25;2088331;28;20015;-63
2022/04/02 01:52:20;;;;;;;;;;;;;;;-143.90;100.00;55381.28;2081409;28;20509;-63
2022/04/02 01:53:42;;;;;;;;;;;;;;;-143.90;100.00;55389.22;2082414;28;19929;-63
2022/04/02 01:55:05;;;;;;;;;;;;;;;-143.90;100.00;55379.28;2090031;28;20070;-63
2022/04/02 01:56:26;;;;;;;;;;;;;;;-143.90;100.00;55373.31;2086020;28;20385;-63
2022/04/02 01:57:52;;;;;;;;;;;;;;;-143.90;100.00;55383.25;2082152;28;20015;-62
2022/04/02 01:59:22;;;;;;;;;;;;;;;-143.90;100.00;55377.28;2091690;28;19931;-61
2022/04/02 02:00:46;;;;;;;;;;;;;;;-143.90;100.00;55393.19;2085372;28;20031;-63
2022/04/02 02:02:08;;;;;;;;;;;;;;;-143.90;100.00;55393.19;2083474;28;19967;-63
2022/04/02 02:03:28;;;;;;;;;;;;;;;-143.90;100.00;55385.25;2083301;28;19975;-60
2022/04/02 02:04:49;;;;;;;;;;;;;;;-143.90;100.00;55373.31;2083015;28;19972;-62
2022/04/02 02:06:11;;;;;;;;;;;;;;;-143.90;100.00;55389.22;2082946;28;19921;-62
2022/04/02 02:07:37;;;;;;;;;;;;;;;-143.90;100.00;55401.13;2082562;28;19925;-63
2022/04/02 02:08:57;;;;;;;;;;;;;;;-143.90;100.00;55397.16;2082892;28;19931;-63
2022/04/02 02:10:38;;;;;;;;;;;;;;;-143.90;100.00;55405.09;2094098;28;19998;-61
2022/04/02 02:12:15;;;;;;;;;;;;;;;-143.90;100.00;55347.50;2094521;28;19931;-63
2022/04/02 02:13:51;;;;;;;;;;;;;;;-143.90;100.00;55373.31;2091417;28;19921;-62
2022/04/02 02:15:17;;;;;;;;;;;;;;;-143.90;100.00;55393.19;2092582;28;19920;-63
2022/04/02 02:16:41;;;;;;;;;;;;;;;-143.90;100.00;55365.38;2083450;28;20836;-63
2022/04/02 02:18:02;;;;;;;;;;;;;;;-143.90;100.00;55353.47;2090647;28;19920;-64
2022/04/02 02:19:22;;;;;;;;;;;;;;;-143.90;100.00;55409.06;2085364;28;20549;-64
2022/04/02 02:20:43;;;;;;;;;;;;;;;-143.90;100.00;55391.19;2089463;28;20014;-64
2022/04/02 02:22:05;;;;;;;;;;;;;;;-143.90;100.00;55409.06;2084912;28;20385;-65
2022/04/02 02:23:25;;;;;;;;;;;;;;;-143.90;100.00;55373.31;2090340;28;20058;-64
2022/04/02 02:24:46;;;;;;;;;;;;;;;-143.90;98.92;55422.97;2083480;28;19965;-64
2022/04/02 02:26:06;;;;;;;;;;;;;;;-143.90;99.74;55377.28;2084429;28;19921;-63
2022/04/02 02:27:27;;;;;;;;;;;;;;;-143.90;99.48;55345.53;2084453;28;19920;-64
2022/04/02 02:28:48;;;;;;;;;;;;;;;-143.90;98.50;55377.28;2089344;28;20360;-63
2022/04/02 02:30:18;;;;;;;;;;;;;;;-143.90;98.74;55381.28;2086504;28;20299;-64
2022/04/02 02:31:38;;;;;;;;;;;;;;;-143.90;98.28;55369.34;2079769;28;19929;-64
2022/04/02 02:36:18;;;;;;;;;;;;;;;-143.90;97.01;55401.13;2079785;28;20301;-63
2022/04/02 02:38:05;;;;;;;;;;;;;;;-143.90;97.80;55409.06;2083637;28;19929;-63
2022/04/02 02:39:31;;;;;;;;;;;;;;;-143.90;99.43;55381.28;2078001;28;19921;-62
2022/04/02 02:41:10;;;;;;;;;;;;;;;-143.90;99.07;55379.28;2091758;28;20030;-62
2022/04/02 02:42:34;;;;;;;;;;;;;;;-143.90;99.53;55381.28;2084027;28;19942;-63
2022/04/02 02:44:16;;;;;;;;;;;;;;;-143.90;97.47;55405.09;2090576;28;20481;-63
2022/04/02 02:45:42;;;;;;;;;;;;;;;-143.90;97.36;55373.31;2083492;28;20474;-63
2022/04/02 02:47:03;;;;;;;;;;;;;;;-143.90;98.01;55375.31;2088858;28;19962;-64
2022/04/02 02:48:25;;;;;;;;;;;;;;;-143.90;99.64;55375.31;2093604;28;19931;-63
2022/04/02 02:49:49;;;;;;;;;;;;;;;-143.90;100.00;55365.38;2090258;28;19974;-64
2022/04/02 02:51:15;;;;;;;;;;;;;;;-143.90;100.00;55381.28;2078894;28;20806;-65
2022/04/02 02:52:36;;;;;;;;;;;;;;;-143.90;100.00;55373.31;2089754;28;19924;-61
2022/04/02 02:53:56;;;;;;;;;;;;;;;-143.90;100.00;55365.38;2092772;28;20027;-63
2022/04/02 02:55:18;;;;;;;;;;;;;;;-143.90;100.00;55413.03;2083472;28;20392;-62
2022/04/02 02:56:39;;;;;;;;;;;;;;;-143.90;100.00;55361.41;2081730;28;19986;-62
2022/04/02 02:58:00;;;;;;;;;;;;;;;-143.90;100.00;55385.25;2088332;28;19920;-62
2022/04/02 02:59:21;;;;;;;;;;;;;;;-143.90;100.00;55387.22;2091777;28;19920;-62
2022/04/02 03:00:42;;;;;;;;;;;;;;;-143.90;100.00;55407.09;2082813;28;19925;-63
2022/04/02 03:02:11;;;;;;;;;;;;;;;-143.90;100.00;55363.41;2088334;28;19959;-63
2022/04/02 03:03:34;;;;;;;;;;;;;;;-143.90;100.00;55369.34;2091911;28;20407;-63
2022/04/02 03:04:56;;;;;;;;;;;;;;;-143.90;100.00;55381.28;2084154;28;20020;-64
2022/04/02 03:06:25;;;;;;;;;;;;;;;-143.90;100.00;55389.22;2089065;28;20011;-64
2022/04/02 03:07:49;;;;;;;;;;;;;;;-143.90;100.00;55389.22;2091307;28;19924;-63
2022/04/02 03:09:15;;;;;;;;;;;;;;;-143.90;100.00;55424.97;2090481;28;20007;-64
2022/04/02 03:10:40;;;;;;;;;;;;;;;-143.90;100.00;55345.53;2091304;28;20392;-63
2022/04/02 03:12:01;;;;;;;;;;;;;;;-143.90;100.00;55385.25;2091771;28;19931;-62
2022/04/02 03:13:24;;;;;;;;;;;;;;;-143.90;100.00;55369.34;2085691;28;19921;-64
2022/04/02 03:14:48;;;;;;;;;;;;;;;-143.90;100.00;55393.19;2090656;28;20584;-63
2022/04/02 03:16:09;;;;;;;;;;;;;;;-143.90;100.00;55373.31;2085151;28;20031;-63
2022/04/02 03:17:37;;;;;;;;;;;;;;;-143.90;100.00;55353.47;2091715;28;19929;-61
2022/04/02 03:18:58;;;;;;;;;;;;;;;-143.90;100.00;55369.34;2083085;28;19931;-64
2022/04/02 03:20:20;;;;;;;;;;;;;;;-143.90;100.00;55369.34;2081921;28;20008;-61
2022/04/02 03:21:42;;;;;;;;;;;;;;;-143.90;100.00;55409.06;2089530;28;19924;-63
2022/04/02 03:23:03;;;;;;;;;;;;;;;-143.90;100.00;55381.28;2083957;28;19924;-61
2022/04/02 03:24:24;;;;;;;;;;;;;;;-143.90;100.00;55389.22;2091105;28;20055;-62
2022/04/02 03:25:45;;;;;;;;;;;;;;;-143.90;100.00;55361.41;2085700;28;19921;-63
2022/04/02 03:27:06;;;;;;;;;;;;;;;-143.90;100.00;55397.16;2086245;28;20017;-63
2022/04/02 03:28:33;;;;;;;;;;;;;;;-143.90;100.00;55365.38;2091299;28;19921;-62
2022/04/02 03:29:54;;;;;;;;;;;;;;;-143.90;100.00;55379.28;2092984;28;19944;-62
2022/04/02 03:31:15;;;;;;;;;;;;;;;-143.90;99.93;55403.13;2084917;28;19936;-60
2022/04/02 03:32:38;;;;;;;;;;;;;;;-143.90;100.00;55373.31;2082004;28;19927;-63
2022/04/02 03:34:00;;;;;;;;;;;;;;;-143.90;100.00;55395.16;2081739;28;19920;-63
2022/04/02 03:35:21;;;;;;;;;;;;;;;-143.90;100.00;55367.38;2091694;28;19928;-64
2022/04/02 03:36:46;;;;;;;;;;;;;;;-143.90;97.61;55393.19;2092330;28;19955;-62
2022/04/02 03:38:08;;;;;;;;;;;;;;;-143.90;97.51;55381.28;2085232;28;20390;-62
2022/04/02 03:39:29;;;;;;;;;;;;;;;-143.90;96.00;55371.34;2082295;28;19921;-61
2022/04/02 03:40:50;;;;;;;;;;;;;;;-143.90;95.12;55369.34;2089565;28;20020;-62
2022/04/02 03:42:11;;;;;;;;;;;;;;;-143.90;96.61;55349.50;2082434;28;19931;-63
2022/04/02 03:43:34;;;;;;;;;;;;;;;-143.90;95.96;55369.34;2079143;28;20479;-62
2022/04/02 03:44:56;;;;;;;;;;;;;;;-143.90;96.58;55409.06;2080191;28;20042;-62
2022/04/02 03:47:59;;;;;;;;;;;;;;;-143.90;98.06;55365.38;2085341;28;19920;-62
2022/04/02 03:49:22;;;;;;;;;;;;;;;-143.90;99.69;55357.44;2081551;28;19927;-61
2022/04/02 03:50:43;;;;;;;;;;;;;;;-143.90;100.00;55369.34;2082278;28;20017;-63
2022/04/02 03:52:11;;;;;;;;;;;;;;;-143.90;100.00;55397.16;2082431;28;20015;-63
2022/04/02 03:53:32;;;;;;;;;;;;;;;-143.90;100.00;55373.31;2091866;28;20019;-63
2022/04/02 03:54:56;;;;;;;;;;;;;;;-143.90;100.00;55393.19;2086022;28;19924;-63
2022/04/02 03:56:17;;;;;;;;;;;;;;;-143.90;100.00;55379.28;2092062;28;20379;-64
2022/04/02 03:57:47;;;;;;;;;;;;;;;-143.90;100.00;55369.34;2092093;28;19942;-63
2022/04/02 03:59:11;;;;;;;;;;;;;;;-143.90;100.00;55353.47;2088553;28;20400;-65
2022/04/02 04:00:33;;;;;;;;;;;;;;;-143.90;100.00;55345.53;2090076;28;19948;-63
2022/04/02 04:02:02;;;;;;;;;;;;;;;-143.90;100.00;55397.16;2084009;28;19920;-62
2022/04/02 04:03:23;;;;;;;;;;;;;;;-143.90;100.00;55377.28;2090647;28;19925;-64
2022/04/02 04:04:46;;;;;;;;;;;;;;;-143.90;100.00;55367.38;2085218;28;20036;-63
2022/04/02 04:06:08;;;;;;;;;;;;;;;-143.90;100.00;55417.00;2088895;28;19924;-62
2022/04/02 04:07:29;;;;;;;;;;;;;;;-143.90;100.00;55387.22;2093128;28;20461;-64
2022/04/02 04:08:52;;;;;;;;;;;;;;;-143.90;100.00;55385.25;2094537;28;19921;-64
2022/04/02 04:10:13;;;;;;;;;;;;;;;-143.90;100.00;55397.16;2085484;28;19921;-64
2022/04/02 04:11:34;;;;;;;;;;;;;;;-143.90;100.00;55371.34;2089993;28;19920;-64
2022/04/02 04:12:56;;;;;;;;;;;;;;;-143.90;100.00;55361.41;2091492;28;21000;-63
2022/04/02 04:14:20;;;;;;;;;;;;;;;-143.90;100.00;55357.44;2082841;28;19921;-63
2022/04/02 04:15:42;;;;;;;;;;;;;;;-143.90;100.00;55369.34;2088341;28;20634;-64
2022/04/02 04:17:04;;;;;;;;;;;;;;;-143.90;100.00;55365.38;2089122;28;20018;-64
2022/04/02 04:18:25;;;;;;;;;;;;;;;-143.90;100.00;55379.28;2081859;28;19927;-65
2022/04/02 04:19:47;;;;;;;;;;;;;;;-143.90;100.00;55349.50;2081167;28;20819;-64
2022/04/02 04:21:09;;;;;;;;;;;;;;;-143.90;98.76;55389.22;2079410;28;19925;-61
2022/04/02 04:22:30;;;;;;;;;;;;;;;-143.90;98.10;55385.25;2090361;28;20042;-64
2022/04/02 04:23:52;;;;;;;;;;;;;;;-143.90;97.63;55452.75;2085635;28;19920;-61
2022/04/02 04:25:13;;;;;;;;;;;;;;;-143.90;96.72;55363.41;2081124;28;19931;-63
2022/04/02 04:26:38;;;;;;;;;;;;;;;-143.90;97.29;55367.38;2089956;28;20058;-63
2022/04/02 04:28:01;;;;;;;;;;;;;;;-143.90;97.55;55357.44;2084884;28;19958;-64
2022/04/02 04:29:22;;;;;;;;;;;;;;;-143.90;98.45;55357.44;2086493;28;19928;-63
2022/04/02 04:30:43;;;;;;;;;;;;;;;-143.90;100.00;55383.25;2091592;28;19997;-63
2022/04/02 04:32:04;;;;;;;;;;;;;;;-143.90;98.82;55385.25;2091972;28;19920;-63
2022/04/02 04:33:25;;;;;;;;;;;;;;;-143.90;95.96;55373.31;2092733;28;19974;-63
2022/04/02 04:34:45;;;;;;;;;;;;;;;-143.90;96.74;55381.28;2092448;28;19925;-63
2022/04/02 04:36:06;;;;;;;;;;;;;;;-143.90;95.69;55381.28;2093599;28;19951;-63
2022/04/02 04:37:27;;;;;;;;;;;;;;;-143.90;95.47;55391.19;2083168;28;19932;-62
2022/04/02 04:38:49;;;;;;;;;;;;;;;-143.90;96.40;55369.34;2090635;28;20277;-63
2022/04/02 04:40:13;;;;;;;;;;;;;;;-143.90;97.19;55385.25;2077487;28;19983;-63
2022/04/02 04:41:38;;;;;;;;;;;;;;;-143.90;97.12;55385.25;2079798;28;20031;-61
2022/04/02 04:42:58;;;;;;;;;;;;;;;-143.90;97.97;55345.53;2084216;28;20696;-63
2022/04/02 04:44:29;;;;;;;;;;;;;;;-143.90;97.26;55357.44;2085652;28;20014;-63
2022/04/02 04:45:50;;;;;;;;;;;;;;;-143.90;96.24;55409.06;2080261;28;19932;-64
2022/04/02 04:47:13;;;;;;;;;;;;;;;-143.90;96.55;55397.16;2088325;28;20296;-63
2022/04/02 04:48:42;;;;;;;;;;;;;;;-143.90;98.37;55357.44;2084955;28;20372;-64
2022/04/02 04:50:03;;;;;;;;;;;;;;;-143.90;98.16;55369.34;2089954;28;19920;-62
2022/04/02 04:51:26;;;;;;;;;;;;;;;-143.90;98.32;55389.22;2083567;28;19925;-63
2022/04/02 04:52:52;;;;;;;;;;;;;;;-143.90;97.61;55377.28;2080186;28;19995;-63
2022/04/02 04:54:13;;;;;;;;;;;;;;;-143.90;97.87;55389.22;2078749;28;19927;-63
2022/04/02 04:55:38;;;;;;;;;;;;;;;-143.90;98.92;55377.28;2078687;28;19928;-62
2022/04/02 04:56:59;;;;;;;;;;;;;;;-143.90;99.43;55387.22;2080813;28;19929;-62
2022/04/02 04:58:20;;;;;;;;;;;;;;;-143.90;99.18;55385.25;2080810;28;19974;-62
2022/04/02 04:59:42;;;;;;;;;;;;;;;-143.90;98.81;55369.34;2090438;28;19920;-63
2022/04/02 05:01:04;;;;;;;;;;;;;;;-143.90;98.24;55397.16;2089754;28;19924;-63
2022/04/02 05:02:26;;;;;;;;;;;;;;;-143.90;98.12;55409.06;2085018;28;20039;-64
2022/04/02 05:03:47;;;;;;;;;;;;;;;-143.90;97.43;55393.19;2088770;28;19920;-63
2022/04/02 05:05:14;;;;;;;;;;;;;;;-143.90;95.59;55395.16;2092246;28;19932;-64
2022/04/02 05:06:37;;;;;;;;;;;;;;;-143.90;95.08;55383.25;2084005;28;19920;-62
2022/04/02 05:07:58;;;;;;;;;;;;;;;-143.90;93.85;55355.47;2090249;28;19920;-63
2022/04/02 05:09:19;;;;;;;;;;;;;;;-143.90;93.26;55409.06;2085171;28;19928;-63
2022/04/02 05:10:42;;;;;;;;;;;;;;;-143.90;93.07;55361.41;2074534;28;19921;-64
2022/04/02 05:12:06;;;;;;;;;;;;;;;-143.90;90.80;55333.63;2078310;28;19975;-64
2022/04/02 05:13:30;;;;;;;;;;;;;;;-143.90;91.00;55393.19;2080759;28;19921;-63
2022/04/02 05:14:52;;;;;;;;;;;;;;;-143.90;90.22;55361.41;2086363;28;20006;-64
2022/04/02 05:16:17;;;;;;;;;;;;;;;-143.90;90.28;55373.31;2080324;28;19929;-64
2022/04/02 05:17:38;;;;;;;;;;;;;;;-143.90;88.53;55407.09;2081996;28;19929;-63
2022/04/02 05:19:00;;;;;;;;;;;;;;;-143.90;88.08;55401.13;2088334;28;19924;-64
2022/04/02 05:20:21;;;;;;;;;;;;;;;-143.90;89.88;55357.44;2083913;28;20858;-64
2022/04/02 05:21:42;;;;;;;;;;;;;;;-143.90;90.14;55357.44;2080557;28;19921;-65
2022/04/02 05:23:07;;;;;;;;;;;;;;;-143.90;91.27;55387.22;2087638;28;19924;-64
2022/04/02 05:24:28;;;;;;;;;;;;;;;-143.90;92.02;55367.38;2084790;28;19920;-63
2022/04/02 05:25:50;;;;;;;;;;;;;;;-143.90;93.19;55379.28;2087420;28;19927;-63
2022/04/02 05:27:12;;;;;;;;;;;;;;;-143.90;94.11;55361.41;2083319;28;19924;-64
2022/04/02 05:28:32;;;;;;;;;;;;;;;-143.90;94.35;55383.25;2089257;28;19928;-64
2022/04/02 05:29:53;;;;;;;;;;;;;;;-143.90;93.84;55369.34;2083630;28;20549;-62
2022/04/02 05:31:15;;;;;;;;;;;;;;;-143.90;93.87;55391.19;2082438;28;20410;-63
2022/04/02 05:32:35;;;;;;;;;;;;;;;-143.90;93.98;55419.00;2088870;28;19921;-62
2022/04/02 05:33:57;;;;;;;;;;;;;;;-143.90;93.47;55379.28;2093037;28;19934;-63
2022/04/02 05:35:18;;;;;;;;;;;;;;;-143.90;93.18;55395.16;2083545;28;19956;-63
2022/04/02 05:36:41;;;;;;;;;;;;;;;-143.90;96.50;55397.16;2088958;28;19999;-64
2022/04/02 05:38:02;;;;;;;;;;;;;;;-143.90;95.34;55405.09;2088954;28;20478;-64
2022/04/02 05:39:22;;;;;;;;;;;;;;;-143.90;95.76;55371.34;2080658;28;19921;-64
2022/04/02 05:40:43;;;;;;;;;;;;;;;-143.90;95.47;55373.31;2089452;28;19969;-62
2022/04/02 05:42:07;;;;;;;;;;;;;;;-143.90;93.98;55361.41;2083564;28;20871;-61
2022/04/02 05:43:28;;;;;;;;;;;;;;;-143.90;94.13;55401.13;2089590;28;19931;-63
2022/04/02 05:44:48;;;;;;;;;;;;;;;-143.90;95.69;55385.25;2074706;28;19921;-62
2022/04/02 05:46:12;;;;;;;;;;;;;;;-143.90;95.13;55381.28;2080879;28;20002;-61
2022/04/02 05:47:42;;;;;;;;;;;;;;;-143.90;95.96;55405.09;2089507;28;19931;-62
2022/04/02 05:49:05;;;;;;;;;;;;;;;-143.90;97.30;55377.28;2083255;28;19963;-64
2022/04/02 05:50:26;;;;;;;;;;;;;;;-143.90;98.64;55373.31;2090540;28;19928;-64
2022/04/02 05:51:46;;;;;;;;;;;;;;;-143.90;98.02;55365.38;2093556;28;19952;-62
2022/04/02 05:53:08;;;;;;;;;;;;;;;-143.90;98.50;55355.47;2090479;28;19920;-62
2022/04/02 05:54:29;;;;;;;;;;;;;;;-143.90;98.22;55397.16;2092722;28;19928;-64
2022/04/02 05:55:50;;;;;;;;;;;;;;;-143.90;98.42;55403.13;2092141;28;19924;-64
2022/04/02 05:57:11;;;;;;;;;;;;;;;-143.90;99.33;55341.56;2092756;28;19925;-63
2022/04/02 05:58:31;;;;;;;;;;;;;;;-143.90;100.00;55353.47;2093426;28;20410;-63
2022/04/02 05:59:52;;;;;;;;;;;;;;;-143.90;100.00;55377.28;2092368;28;19951;-63
2022/04/02 06:01:13;;;;;;;;;;;;;;;-143.90;100.00;55361.41;2084916;28;19927;-62
2022/04/02 06:02:34;;;;;;;;;;;;;;;-143.90;100.00;55405.09;2088894;28;20410;-60
2022/04/02 06:03:55;;;;;;;;;;;;;;;-143.90;100.00;55409.06;2092644;28;19960;-62
2022/04/02 06:05:16;;;;;;;;;;;;;;;-143.90;100.00;55381.28;2093792;28;19920;-63
2022/04/02 06:06:36;;;;;;;;;;;;;;;-143.90;100.00;55385.25;2084699;28;20040;-60
2022/04/02 06:07:57;;;;;;;;;;;;;;;-143.90;100.00;55381.28;2090733;28;19925;-61
2022/04/02 06:09:17;;;;;;;;;;;;;;;-143.90;100.00;55393.19;2093340;28;19926;-63
2022/04/02 06:10:38;;;;;;;;;;;;;;;-143.90;100.00;55377.28;2092931;28;19924;-63
2022/04/02 06:11:59;;;;;;;;;;;;;;;-143.90;100.00;55369.34;2083504;28;19921;-63
2022/04/02 06:13:20;;;;;;;;;;;;;;;-143.90;100.00;55365.38;2089250;28;20378;-63
2022/04/02 06:14:40;;;;;;;;;;;;;;;-143.90;100.00;55393.19;2092471;28;19942;-65
2022/04/02 06:16:01;;;;;;;;;;;;;;;-143.90;100.00;55411.06;2093581;28;19920;-63
2022/04/02 06:17:22;;;;;;;;;;;;;;;-143.90;100.00;55353.47;2092638;28;20490;-61
2022/04/02 06:18:43;;;;;;;;;;;;;;;-143.90;100.00;55369.34;2093034;28;20354;-64
2022/04/02 06:20:05;;;;;;;;;;;;;;;-143.90;100.00;55383.25;2092507;28;19948;-62
2022/04/02 06:21:25;;;;;;;;;;;;;;;-143.90;100.00;55413.03;2091016;28;19920;-65
2022/04/02 06:22:46;;;;;;;;;;;;;;;-143.90;100.00;55351.47;2093536;28;19924;-62
2022/04/02 06:24:07;;;;;;;;;;;;;;;-143.90;100.00;55365.38;2084780;28;19947;-63
2022/04/02 06:25:28;;;;;;;;;;;;;;;-143.90;100.00;55365.38;2089256;28;19920;-64
2022/04/02 06:26:48;;;;;;;;;;;;;;;-143.90;100.00;55415.03;2091763;28;19973;-63
2022/04/02 06:28:09;;;;;;;;;;;;;;;-143.90;100.00;55417.00;2092251;28;19928;-63
2022/04/02 06:29:30;;;;;;;;;;;;;;;-143.90;100.00;55361.41;2091720;28;20798;-63
2022/04/02 06:30:51;;;;;;;;;;;;;;;-143.90;100.00;55335.59;2092784;28;19920;-64
2022/04/02 06:32:13;;;;;;;;;;;;;;;-143.90;100.00;55381.28;2085020;28;19948;-62
2022/04/02 06:33:34;;;;;;;;;;;;;;;-143.90;100.00;55405.09;2081192;28;19924;-63
2022/04/02 06:34:55;;;;;;;;;;;;;;;-143.90;100.00;55389.22;2090374;28;20011;-63
2022/04/02 06:36:16;;;;;;;;;;;;;;;-143.90;100.00;55385.25;2083338;28;20774;-62
2022/04/02 06:37:40;;;;;;;;;;;;;;;-143.90;100.00;55389.22;2083497;28;20312;-62
2022/04/02 06:39:01;;;;;;;;;;;;;;;-143.90;100.00;55389.22;2089486;28;20406;-62
2022/04/02 06:40:22;;;;;;;;;;;;;;;-143.90;100.00;55440.84;2094551;28;20284;-62
2022/04/02 06:41:46;;;;;;;;;;;;;;;-143.90;100.00;55389.22;2093566;28;19924;-61
2022/04/02 06:43:07;;;;;;;;;;;;;;;-143.90;100.00;55424.97;2091739;28;19944;-63
2022/04/02 06:44:43;;;;;;;;;;;;;;;-143.90;100.00;55391.19;2084374;28;20018;-62
2022/04/02 06:46:04;;;;;;;;;;;;;;;-143.90;100.00;55373.31;2089928;28;19947;-61
2022/04/02 06:47:26;;;;;;;;;;;;;;;-143.90;100.00;55413.03;2092795;28;19970;-61
2022/04/02 06:48:46;;;;;;;;;;;;;;;-143.90;100.00;55381.28;2092939;28;19925;-62
2022/04/02 06:50:09;;;;;;;;;;;;;;;-143.90;100.00;55389.22;2094937;28;19927;-62
2022/04/02 06:51:30;;;;;;;;;;;;;;;-143.90;100.00;55385.25;2085746;28;19964;-64
2022/04/02 06:52:50;;;;;;;;;;;;;;;-143.90;100.00;55401.13;2091947;28;19928;-64
2022/04/02 06:54:11;;;;;;;;;;;;;;;-143.90;100.00;55387.22;2094820;28;19920;-62
2022/04/02 06:55:32;;;;;;;;;;;;;;;-143.90;100.00;55389.22;2094443;28;19924;-64
2022/04/02 06:56:53;;;;;;;;;;;;;;;-143.90;100.00;55405.09;2095117;28;20299;-64
2022/04/02 06:58:25;;;;;;;;;;;;;;;-143.90;100.00;55387.22;2094670;28;19942;-64
2022/04/02 06:59:46;;;;;;;;;;;;;;;-143.90;100.00;55417.00;2085735;28;19925;-64
2022/04/02 07:01:07;;;;;;;;;;;;;;;-143.90;100.00;55377.28;2092684;28;19924;-63
2022/04/02 07:02:28;;;;;;;;;;;;;;;-143.90;100.00;55389.22;2094802;28;19927;-63
2022/04/02 07:03:49;;;;;;;;;;;;;;;-143.90;100.00;55379.28;2095914;28;19943;-63